createdAt,value
2022-08-07T00:01:43.311Z,49.08
2022-08-07T00:06:33.066Z,49.28
2022-08-07T00:11:47.974Z,49.33
2022-08-07T00:17:02.051Z,50.16
2022-08-07T00:22:04.419Z,49.65
2022-08-07T00:27:07.750Z,49.81
2022-08-07T00:32:13.989Z,50.18
2022-08-07T00:37:17.504Z,50.46
2022-08-07T00:42:19.225Z,50.47
2022-08-07T00:48:09.460Z,50.57
2022-08-07T00:52:53.301Z,50.93
2022-08-07T00:57:55.688Z,51.20
2022-08-07T01:10:05.317Z,51.48
2022-08-07T01:14:44.999Z,51.89
2022-08-07T01:19:54.163Z,51.68
2022-08-07T01:24:57.057Z,51.98
2022-08-07T01:30:00.707Z,52.21
2022-08-07T01:35:03.431Z,52.40
2022-08-07T01:40:06.900Z,52.68
2022-08-07T01:45:18.512Z,53.56
2022-08-07T01:50:28.851Z,52.96
2022-08-07T01:55:37.494Z,53.24
2022-08-07T02:00:45.394Z,53.24
2022-08-07T02:06:08.941Z,53.86
2022-08-07T02:11:30.678Z,53.63
2022-08-07T02:16:52.417Z,54.00
2022-08-07T02:21:58.884Z,53.89
2022-08-07T02:27:02.919Z,53.77
2022-08-07T02:32:07.515Z,53.85
2022-08-07T02:37:14.516Z,54.06
2022-08-07T02:42:19.103Z,54.06
2022-08-07T02:47:23.433Z,54.51
2022-08-07T02:52:47.761Z,55.29
2022-08-07T02:57:53.055Z,55.06
2022-08-07T03:02:55.531Z,54.99
2022-08-07T03:08:08.117Z,55.35
2022-08-07T03:13:19.536Z,55.03
2022-08-07T03:18:22.680Z,55.24
2022-08-07T03:24:20.658Z,55.67
2022-08-07T03:29:03.582Z,55.49
2022-08-07T03:34:07.917Z,55.59
2022-08-07T03:39:13.306Z,55.53
2022-08-07T03:44:15.757Z,55.80
2022-08-07T03:49:24.729Z,55.88
2022-08-07T03:54:35.954Z,55.97
2022-08-07T04:00:01.574Z,55.94
2022-08-07T04:05:07.387Z,55.72
2022-08-07T04:10:15.630Z,55.91
2022-08-07T04:15:21.231Z,55.78
2022-08-07T04:20:25.715Z,55.98
2022-08-07T04:25:29.297Z,56.03
2022-08-07T04:30:39.624Z,56.29
2022-08-07T04:35:51.048Z,56.49
2022-08-07T04:40:56.516Z,56.27
2022-08-07T04:46:12.396Z,54.28
2022-08-07T04:51:28.759Z,47.67
2022-08-07T04:58:15.615Z,42.70
2022-08-07T05:02:20.855Z,38.71
2022-08-07T05:07:36.822Z,36.38
2022-08-07T05:12:51.344Z,33.42
2022-08-07T05:18:13.087Z,32.06
2022-08-07T05:23:23.214Z,33.57
2022-08-07T05:28:40.499Z,37.80
2022-08-07T05:33:51.395Z,40.06
2022-08-07T05:40:06.066Z,42.10
2022-08-07T05:44:30.219Z,43.77
2022-08-07T05:49:37.193Z,45.01
2022-08-07T05:54:53.835Z,45.71
2022-08-07T06:00:01.190Z,46.29
2022-08-07T06:05:15.412Z,46.92
2022-08-07T06:10:17.803Z,47.05
2022-08-07T06:15:22.296Z,47.06
2022-08-07T06:20:49.841Z,46.79
2022-08-07T06:26:05.957Z,46.90
2022-08-07T06:31:08.845Z,46.80
2022-08-07T06:36:13.140Z,46.24
2022-08-07T06:42:01.063Z,46.25
2022-08-07T06:47:10.134Z,44.38
2022-08-07T06:52:16.083Z,43.62
2022-08-07T06:57:39.859Z,43.28
2022-08-07T07:02:57.558Z,42.70
2022-08-07T07:08:06.920Z,42.65
2022-08-07T07:13:41.600Z,41.84
2022-08-07T07:18:48.136Z,42.12
2022-08-07T07:24:08.229Z,41.56
2022-08-07T07:29:55.868Z,41.38
2022-08-07T07:34:41.001Z,40.67
2022-08-07T07:39:54.604Z,40.43
2022-08-07T07:44:59.897Z,37.82
2022-08-07T07:50:34.580Z,35.47
2022-08-07T07:55:25.507Z,32.87
2022-08-07T08:00:40.299Z,32.21
2022-08-07T08:05:54.987Z,30.96
2022-08-07T08:10:58.056Z,29.28
2022-08-07T08:16:02.662Z,28.55
2022-08-07T08:21:07.532Z,28.38
2022-08-07T08:26:31.356Z,27.75
2022-08-07T08:32:17.258Z,28.20
2022-08-07T08:37:02.927Z,27.15
2022-08-07T08:42:11.755Z,26.57
2022-08-07T08:47:22.572Z,25.71
2022-08-07T08:52:36.190Z,25.33
2022-08-07T08:57:59.048Z,24.63
2022-08-07T09:03:15.988Z,24.81
2022-08-07T09:08:57.918Z,24.59
2022-08-07T09:14:16.011Z,24.35
2022-08-07T09:19:51.169Z,24.21
2022-08-07T09:25:07.163Z,24.36
2022-08-07T09:30:17.547Z,23.81
2022-08-07T09:36:03.201Z,23.40
2022-08-07T09:41:36.469Z,23.11
2022-08-07T09:47:52.126Z,23.34
2022-08-07T09:53:02.233Z,23.25
2022-08-07T09:58:32.804Z,23.31
2022-08-07T10:04:06.536Z,23.77
2022-08-07T10:09:59.383Z,23.81
2022-08-07T10:15:18.532Z,23.61
2022-08-07T10:20:39.489Z,22.84
2022-08-07T10:26:25.896Z,23.13
2022-08-07T10:31:31.430Z,23.59
2022-08-07T10:37:12.336Z,23.09
2022-08-07T10:42:39.417Z,23.29
2022-08-07T10:47:53.960Z,23.36
2022-08-07T10:53:13.185Z,23.66
2022-08-07T10:58:40.403Z,23.73
2022-08-07T11:04:16.485Z,24.00
2022-08-07T11:10:10.158Z,23.80
2022-08-07T11:15:17.481Z,23.65
2022-08-07T11:20:24.519Z,24.29
2022-08-07T11:25:42.604Z,23.59
2022-08-07T11:30:55.941Z,23.35
2022-08-07T11:36:20.452Z,23.54
2022-08-07T11:42:02.036Z,23.85
2022-08-07T11:47:38.538Z,22.70
2022-08-07T11:53:06.538Z,22.92
2022-08-07T11:58:21.064Z,22.56
2022-08-07T12:03:53.211Z,22.71
2022-08-07T12:09:16.215Z,22.46
2022-08-07T12:14:27.307Z,22.77
2022-08-07T12:20:10.498Z,22.35
2022-08-07T12:26:23.506Z,21.98
2022-08-07T12:32:01.953Z,21.92
2022-08-07T12:37:22.884Z,22.17
2022-08-07T12:42:28.608Z,22.11
2022-08-07T12:47:49.172Z,22.05
2022-08-07T12:52:59.432Z,22.02
2022-08-07T12:58:06.123Z,21.82
2022-08-07T13:03:59.197Z,21.62
2022-08-07T13:09:12.555Z,21.46
2022-08-07T13:15:15.703Z,20.81
2022-08-07T13:20:41.060Z,20.63
2022-08-07T13:26:00.616Z,20.11
2022-08-07T13:31:55.104Z,20.58
2022-08-07T13:37:22.066Z,20.23
2022-08-07T13:42:25.876Z,20.28
2022-08-07T13:48:06.304Z,20.44
2022-08-07T13:52:55.338Z,20.51
2022-08-07T13:58:27.870Z,20.25
2022-08-07T14:04:05.250Z,20.88
2022-08-07T14:09:04.751Z,20.43
2022-08-07T14:14:12.129Z,20.71
2022-08-07T14:20:42.554Z,20.81
2022-08-07T14:24:53.177Z,21.32
2022-08-07T14:30:08.059Z,21.03
2022-08-07T14:35:45.125Z,20.96
2022-08-07T14:40:49.490Z,20.68
2022-08-07T14:45:57.393Z,20.28
2022-08-07T14:51:05.763Z,20.16
2022-08-07T15:01:42.793Z,20.67
2022-08-07T15:06:53.462Z,20.39
2022-08-07T15:12:01.286Z,20.09
2022-08-07T15:17:14.247Z,19.85
2022-08-07T15:22:29.405Z,20.12
2022-08-07T15:27:39.737Z,19.67
2022-08-07T15:33:05.464Z,19.79
2022-08-07T15:44:03.106Z,19.07
2022-08-07T15:49:13.162Z,19.42
2022-08-07T15:54:16.790Z,19.31
2022-08-07T15:59:20.430Z,19.89
2022-08-07T16:04:44.155Z,19.59
2022-08-07T16:10:05.662Z,20.10
2022-08-07T16:15:55.681Z,20.07
2022-08-07T16:21:53.727Z,20.56
2022-08-07T16:26:30.413Z,20.23
2022-08-07T16:31:57.100Z,20.04
2022-08-07T16:44:06.130Z,19.85
2022-08-07T16:49:10.445Z,19.89
2022-08-07T16:54:38.077Z,19.87
2022-08-07T17:00:05.046Z,20.40
2022-08-07T17:06:19.380Z,20.36
2022-08-07T17:11:22.789Z,20.17
2022-08-07T17:16:40.168Z,19.82
2022-08-07T17:21:50.720Z,20.26
2022-08-07T17:27:32.724Z,20.25
2022-08-07T17:32:52.421Z,19.95
2022-08-07T17:38:33.441Z,20.17
2022-08-07T17:44:02.726Z,20.05
2022-08-07T17:49:45.472Z,20.47
2022-08-07T17:54:55.518Z,20.56
2022-08-07T18:00:05.527Z,20.82
2022-08-07T18:05:21.245Z,20.72
2022-08-07T18:10:36.982Z,21.09
2022-08-07T18:16:10.038Z,21.54
2022-08-07T18:21:51.758Z,21.84
2022-08-07T18:27:17.304Z,22.10
2022-08-07T18:33:10.731Z,22.58
2022-08-07T18:38:59.166Z,23.54
2022-08-07T18:43:57.247Z,24.35
2022-08-07T18:50:30.207Z,24.81
2022-08-07T18:55:40.536Z,25.64
2022-08-07T19:00:54.234Z,26.02
2022-08-07T19:06:05.067Z,26.87
2022-08-07T19:11:35.946Z,27.25
2022-08-07T19:17:00.719Z,27.02
2022-08-07T19:22:34.176Z,27.47
2022-08-07T19:28:29.555Z,27.99
2022-08-07T19:33:12.891Z,28.40
2022-08-07T19:38:17.843Z,28.37
2022-08-07T19:43:49.976Z,28.62
2022-08-07T19:48:57.211Z,29.76
2022-08-07T19:54:32.024Z,29.75
2022-08-07T19:59:40.482Z,30.81
2022-08-07T20:04:49.294Z,31.27
2022-08-07T20:10:34.330Z,31.67
2022-08-07T20:15:22.465Z,32.07
2022-08-07T20:20:26.842Z,32.64
2022-08-07T20:25:32.886Z,33.43
2022-08-07T20:30:46.703Z,33.69
2022-08-07T20:35:54.696Z,33.96
2022-08-07T20:41:08.221Z,34.08
2022-08-07T20:46:26.777Z,34.58
2022-08-07T20:51:35.803Z,34.95
2022-08-07T20:56:48.072Z,35.59
2022-08-07T21:01:54.858Z,36.20
2022-08-07T21:07:04.341Z,36.49
2022-08-07T21:12:28.646Z,36.75
2022-08-07T21:18:01.977Z,37.12
2022-08-07T21:23:08.449Z,37.50
2022-08-07T21:28:48.014Z,38.59
2022-08-07T21:34:02.341Z,38.81
2022-08-07T21:39:46.970Z,39.09
2022-08-07T21:44:56.723Z,39.31
2022-08-07T21:50:07.676Z,39.47
2022-08-07T22:02:06.127Z,39.90
2022-08-07T22:07:23.269Z,40.41
2022-08-07T22:12:51.088Z,40.58
2022-08-07T22:18:04.715Z,41.10
2022-08-07T22:23:21.472Z,41.41
2022-08-07T22:28:33.734Z,41.97
2022-08-07T22:33:56.747Z,42.71
2022-08-07T22:39:05.264Z,42.44
2022-08-07T22:44:13.040Z,42.65
2022-08-07T22:49:20.069Z,42.33
2022-08-07T22:54:41.914Z,42.90
2022-08-07T23:00:00.754Z,43.22
2022-08-07T23:06:09.320Z,43.91
2022-08-07T23:10:54.787Z,44.08
2022-08-07T23:16:06.726Z,44.11
2022-08-07T23:21:30.182Z,43.58
2022-08-07T23:27:04.541Z,44.76
2022-08-07T23:34:23.957Z,45.05
2022-08-07T23:38:19.504Z,45.12
2022-08-07T23:43:58.164Z,44.82
2022-08-07T23:49:15.564Z,45.22
2022-08-07T23:54:44.126Z,45.99
